sensor_id;sensor_type;location;lat;lon;timestamp;P1;durP1;ratioP1;P2;durP2;ratioP2
68800;SDS011;55784;50.734;7.086;2023-07-16T00:01:55;7.53;;;1.43;;
68800;SDS011;55784;50.734;7.086;2023-07-16T00:04:21;4.88;;;1.20;;
68800;SDS011;55784;50.734;7.086;2023-07-16T00:06:47;4.60;;;1.20;;
68800;SDS011;55784;50.734;7.086;2023-07-16T00:09:12;6.80;;;1.13;;
68800;SDS011;55784;50.734;7.086;2023-07-16T00:11:37;5.13;;;1.17;;
68800;SDS011;55784;50.734;7.086;2023-07-16T00:14:03;5.63;;;1.40;;
68800;SDS011;55784;50.734;7.086;2023-07-16T00:16:28;4.50;;;1.10;;
68800;SDS011;55784;50.734;7.086;2023-07-16T00:18:53;5.03;;;1.30;;
68800;SDS011;55784;50.734;7.086;2023-07-16T00:21:19;5.67;;;1.50;;
68800;SDS011;55784;50.734;7.086;2023-07-16T00:23:44;5.75;;;1.42;;
68800;SDS011;55784;50.734;7.086;2023-07-16T00:26:10;4.93;;;1.20;;
68800;SDS011;55784;50.734;7.086;2023-07-16T00:28:35;3.83;;;1.10;;
68800;SDS011;55784;50.734;7.086;2023-07-16T00:31:01;4.70;;;1.10;;
68800;SDS011;55784;50.734;7.086;2023-07-16T00:33:26;5.43;;;1.20;;
68800;SDS011;55784;50.734;7.086;2023-07-16T00:35:51;5.23;;;1.20;;
68800;SDS011;55784;50.734;7.086;2023-07-16T00:38:17;4.60;;;1.20;;
68800;SDS011;55784;50.734;7.086;2023-07-16T00:40:43;4.93;;;1.20;;
68800;SDS011;55784;50.734;7.086;2023-07-16T00:43:08;4.13;;;1.07;;
68800;SDS011;55784;50.734;7.086;2023-07-16T00:45:34;5.47;;;1.13;;
68800;SDS011;55784;50.734;7.086;2023-07-16T00:47:59;4.30;;;1.20;;
68800;SDS011;55784;50.734;7.086;2023-07-16T00:50:25;4.00;;;1.00;;
68800;SDS011;55784;50.734;7.086;2023-07-16T00:52:50;4.37;;;1.10;;
68800;SDS011;55784;50.734;7.086;2023-07-16T00:55:16;5.57;;;1.10;;
68800;SDS011;55784;50.734;7.086;2023-07-16T00:57:42;5.00;;;1.17;;
68800;SDS011;55784;50.734;7.086;2023-07-16T01:00:08;5.00;;;1.52;;
68800;SDS011;55784;50.734;7.086;2023-07-16T01:02:34;5.00;;;1.13;;
68800;SDS011;55784;50.734;7.086;2023-07-16T01:05:00;5.00;;;1.20;;
68800;SDS011;55784;50.734;7.086;2023-07-16T01:07:26;4.63;;;1.27;;
68800;SDS011;55784;50.734;7.086;2023-07-16T01:09:54;4.55;;;1.13;;
68800;SDS011;55784;50.734;7.086;2023-07-16T01:12:21;5.32;;;1.10;;
68800;SDS011;55784;50.734;7.086;2023-07-16T01:14:48;5.45;;;1.33;;
68800;SDS011;55784;50.734;7.086;2023-07-16T01:17:14;4.97;;;1.20;;
68800;SDS011;55784;50.734;7.086;2023-07-16T01:19:39;5.03;;;1.27;;
68800;SDS011;55784;50.734;7.086;2023-07-16T01:22:23;5.03;;;1.17;;
68800;SDS011;55784;50.734;7.086;2023-07-16T01:27:44;5.22;;;1.17;;
68800;SDS011;55784;50.734;7.086;2023-07-16T01:30:24;5.20;;;1.20;;
68800;SDS011;55784;50.734;7.086;2023-07-16T01:32:53;6.65;;;1.13;;
68800;SDS011;55784;50.734;7.086;2023-07-16T01:35:18;8.27;;;1.30;;
68800;SDS011;55784;50.734;7.086;2023-07-16T01:37:44;5.03;;;1.10;;
68800;SDS011;55784;50.734;7.086;2023-07-16T01:40:09;4.40;;;1.00;;
68800;SDS011;55784;50.734;7.086;2023-07-16T01:42:36;6.28;;;1.20;;
68800;SDS011;55784;50.734;7.086;2023-07-16T01:45:01;5.30;;;1.40;;
68800;SDS011;55784;50.734;7.086;2023-07-16T01:50:01;4.13;;;1.10;;
68800;SDS011;55784;50.734;7.086;2023-07-16T01:52:28;5.15;;;1.10;;
68800;SDS011;55784;50.734;7.086;2023-07-16T01:54:53;4.27;;;1.03;;
68800;SDS011;55784;50.734;7.086;2023-07-16T01:57:18;3.87;;;0.90;;
68800;SDS011;55784;50.734;7.086;2023-07-16T01:59:44;5.27;;;1.10;;
68800;SDS011;55784;50.734;7.086;2023-07-16T02:02:11;5.05;;;1.17;;
68800;SDS011;55784;50.734;7.086;2023-07-16T02:04:36;4.63;;;1.07;;
68800;SDS011;55784;50.734;7.086;2023-07-16T02:07:01;5.17;;;1.17;;
68800;SDS011;55784;50.734;7.086;2023-07-16T02:09:27;6.03;;;1.13;;
68800;SDS011;55784;50.734;7.086;2023-07-16T02:11:52;4.87;;;1.10;;
68800;SDS011;55784;50.734;7.086;2023-07-16T02:14:17;5.63;;;1.10;;
68800;SDS011;55784;50.734;7.086;2023-07-16T02:16:43;5.90;;;1.30;;
68800;SDS011;55784;50.734;7.086;2023-07-16T02:19:08;5.47;;;1.20;;
68800;SDS011;55784;50.734;7.086;2023-07-16T02:21:33;5.13;;;1.20;;
68800;SDS011;55784;50.734;7.086;2023-07-16T02:23:59;5.77;;;1.00;;
68800;SDS011;55784;50.734;7.086;2023-07-16T02:26:24;4.93;;;1.20;;
68800;SDS011;55784;50.734;7.086;2023-07-16T02:28:50;4.43;;;1.17;;
68800;SDS011;55784;50.734;7.086;2023-07-16T02:31:15;5.93;;;1.30;;
68800;SDS011;55784;50.734;7.086;2023-07-16T02:33:41;5.43;;;1.30;;
68800;SDS011;55784;50.734;7.086;2023-07-16T02:36:06;5.07;;;1.13;;
68800;SDS011;55784;50.734;7.086;2023-07-16T02:38:32;4.33;;;0.93;;
68800;SDS011;55784;50.734;7.086;2023-07-16T02:40:57;5.27;;;1.20;;
68800;SDS011;55784;50.734;7.086;2023-07-16T02:43:22;4.00;;;1.17;;
68800;SDS011;55784;50.734;7.086;2023-07-16T02:45:48;4.50;;;1.07;;
68800;SDS011;55784;50.734;7.086;2023-07-16T02:48:13;4.93;;;1.10;;
68800;SDS011;55784;50.734;7.086;2023-07-16T02:50:39;4.87;;;1.30;;
68800;SDS011;55784;50.734;7.086;2023-07-16T02:53:05;7.57;;;1.37;;
68800;SDS011;55784;50.734;7.086;2023-07-16T02:55:30;5.85;;;1.25;;
68800;SDS011;55784;50.734;7.086;2023-07-16T02:57:56;5.07;;;1.30;;
68800;SDS011;55784;50.734;7.086;2023-07-16T03:00:21;6.60;;;1.10;;
68800;SDS011;55784;50.734;7.086;2023-07-16T03:02:47;4.80;;;1.10;;
68800;SDS011;55784;50.734;7.086;2023-07-16T03:05:14;5.43;;;1.20;;
68800;SDS011;55784;50.734;7.086;2023-07-16T03:07:39;6.73;;;1.40;;
68800;SDS011;55784;50.734;7.086;2023-07-16T03:10:04;5.50;;;1.13;;
68800;SDS011;55784;50.734;7.086;2023-07-16T03:12:30;6.25;;;1.13;;
68800;SDS011;55784;50.734;7.086;2023-07-16T03:14:55;5.27;;;1.10;;
68800;SDS011;55784;50.734;7.086;2023-07-16T03:17:20;6.00;;;1.13;;
68800;SDS011;55784;50.734;7.086;2023-07-16T03:19:47;5.68;;;1.30;;
68800;SDS011;55784;50.734;7.086;2023-07-16T03:22:12;5.63;;;1.13;;
68800;SDS011;55784;50.734;7.086;2023-07-16T03:24:38;6.13;;;1.17;;
68800;SDS011;55784;50.734;7.086;2023-07-16T03:27:03;4.97;;;1.08;;
68800;SDS011;55784;50.734;7.086;2023-07-16T03:29:29;4.90;;;1.13;;
68800;SDS011;55784;50.734;7.086;2023-07-16T03:31:54;4.43;;;1.20;;
68800;SDS011;55784;50.734;7.086;2023-07-16T03:34:19;5.63;;;1.30;;
68800;SDS011;55784;50.734;7.086;2023-07-16T03:36:45;5.63;;;1.00;;
68800;SDS011;55784;50.734;7.086;2023-07-16T03:39:11;5.75;;;1.27;;
68800;SDS011;55784;50.734;7.086;2023-07-16T03:41:36;6.67;;;1.20;;
68800;SDS011;55784;50.734;7.086;2023-07-16T03:44:01;5.40;;;1.00;;
68800;SDS011;55784;50.734;7.086;2023-07-16T03:46:27;6.03;;;1.30;;
68800;SDS011;55784;50.734;7.086;2023-07-16T03:48:53;5.55;;;1.20;;
68800;SDS011;55784;50.734;7.086;2023-07-16T03:51:18;4.80;;;1.10;;
68800;SDS011;55784;50.734;7.086;2023-07-16T03:53:43;6.07;;;1.25;;
68800;SDS011;55784;50.734;7.086;2023-07-16T03:56:09;6.87;;;1.20;;
68800;SDS011;55784;50.734;7.086;2023-07-16T03:58:34;6.83;;;1.23;;
68800;SDS011;55784;50.734;7.086;2023-07-16T04:01:00;5.60;;;1.20;;
68800;SDS011;55784;50.734;7.086;2023-07-16T04:03:25;6.23;;;1.30;;
68800;SDS011;55784;50.734;7.086;2023-07-16T04:05:50;5.10;;;1.40;;
68800;SDS011;55784;50.734;7.086;2023-07-16T04:08:15;6.10;;;1.30;;
68800;SDS011;55784;50.734;7.086;2023-07-16T04:10:41;5.97;;;1.27;;
68800;SDS011;55784;50.734;7.086;2023-07-16T04:13:06;5.77;;;1.40;;
68800;SDS011;55784;50.734;7.086;2023-07-16T04:15:31;6.40;;;1.30;;
68800;SDS011;55784;50.734;7.086;2023-07-16T04:17:57;6.07;;;1.00;;
68800;SDS011;55784;50.734;7.086;2023-07-16T04:20:22;5.40;;;1.40;;
68800;SDS011;55784;50.734;7.086;2023-07-16T04:22:47;5.30;;;1.27;;
68800;SDS011;55784;50.734;7.086;2023-07-16T04:25:12;6.13;;;1.40;;
68800;SDS011;55784;50.734;7.086;2023-07-16T04:27:39;6.15;;;1.17;;
68800;SDS011;55784;50.734;7.086;2023-07-16T04:30:06;5.88;;;1.20;;
68800;SDS011;55784;50.734;7.086;2023-07-16T04:32:32;5.90;;;1.27;;
68800;SDS011;55784;50.734;7.086;2023-07-16T04:34:57;5.93;;;1.53;;
68800;SDS011;55784;50.734;7.086;2023-07-16T04:37:23;5.37;;;1.23;;
68800;SDS011;55784;50.734;7.086;2023-07-16T04:39:48;7.47;;;1.43;;
68800;SDS011;55784;50.734;7.086;2023-07-16T04:42:13;4.57;;;1.20;;
68800;SDS011;55784;50.734;7.086;2023-07-16T04:44:39;3.90;;;1.13;;
68800;SDS011;55784;50.734;7.086;2023-07-16T04:47:05;5.63;;;1.30;;
68800;SDS011;55784;50.734;7.086;2023-07-16T04:49:31;5.33;;;1.43;;
68800;SDS011;55784;50.734;7.086;2023-07-16T04:51:58;5.00;;;1.30;;
68800;SDS011;55784;50.734;7.086;2023-07-16T04:54:24;5.33;;;1.30;;
68800;SDS011;55784;50.734;7.086;2023-07-16T04:56:49;4.67;;;1.37;;
68800;SDS011;55784;50.734;7.086;2023-07-16T04:59:14;5.97;;;1.40;;
68800;SDS011;55784;50.734;7.086;2023-07-16T05:01:39;5.40;;;1.37;;
68800;SDS011;55784;50.734;7.086;2023-07-16T05:04:05;4.95;;;1.40;;
68800;SDS011;55784;50.734;7.086;2023-07-16T05:06:30;6.33;;;1.40;;
68800;SDS011;55784;50.734;7.086;2023-07-16T05:08:56;5.53;;;1.30;;
68800;SDS011;55784;50.734;7.086;2023-07-16T05:11:21;5.20;;;1.30;;
68800;SDS011;55784;50.734;7.086;2023-07-16T05:13:46;7.13;;;1.70;;
68800;SDS011;55784;50.734;7.086;2023-07-16T05:16:12;5.77;;;1.50;;
68800;SDS011;55784;50.734;7.086;2023-07-16T05:18:37;7.40;;;1.40;;
68800;SDS011;55784;50.734;7.086;2023-07-16T05:21:02;5.40;;;1.47;;
68800;SDS011;55784;50.734;7.086;2023-07-16T05:23:28;5.97;;;1.48;;
68800;SDS011;55784;50.734;7.086;2023-07-16T05:25:53;5.07;;;1.60;;
68800;SDS011;55784;50.734;7.086;2023-07-16T05:28:18;5.73;;;1.57;;
68800;SDS011;55784;50.734;7.086;2023-07-16T05:30:44;7.27;;;1.70;;
68800;SDS011;55784;50.734;7.086;2023-07-16T05:33:10;6.25;;;1.60;;
68800;SDS011;55784;50.734;7.086;2023-07-16T05:35:36;6.28;;;1.60;;
68800;SDS011;55784;50.734;7.086;2023-07-16T05:38:01;8.50;;;1.80;;
68800;SDS011;55784;50.734;7.086;2023-07-16T05:40:27;6.37;;;1.60;;
68800;SDS011;55784;50.734;7.086;2023-07-16T05:42:52;6.63;;;1.90;;
68800;SDS011;55784;50.734;7.086;2023-07-16T05:45:17;7.43;;;2.17;;
68800;SDS011;55784;50.734;7.086;2023-07-16T05:47:42;6.83;;;1.83;;
68800;SDS011;55784;50.734;7.086;2023-07-16T05:50:08;7.00;;;2.00;;
68800;SDS011;55784;50.734;7.086;2023-07-16T05:52:33;5.20;;;1.85;;
68800;SDS011;55784;50.734;7.086;2023-07-16T05:54:59;5.90;;;1.80;;
68800;SDS011;55784;50.734;7.086;2023-07-16T05:57:24;6.90;;;2.13;;
68800;SDS011;55784;50.734;7.086;2023-07-16T05:59:49;6.53;;;2.13;;
68800;SDS011;55784;50.734;7.086;2023-07-16T06:02:14;6.70;;;1.80;;
68800;SDS011;55784;50.734;7.086;2023-07-16T06:04:40;6.97;;;2.20;;
68800;SDS011;55784;50.734;7.086;2023-07-16T06:07:05;7.13;;;2.37;;
68800;SDS011;55784;50.734;7.086;2023-07-16T06:09:31;6.30;;;2.30;;
68800;SDS011;55784;50.734;7.086;2023-07-16T06:11:56;7.03;;;2.30;;
68800;SDS011;55784;50.734;7.086;2023-07-16T06:14:22;8.57;;;2.43;;
68800;SDS011;55784;50.734;7.086;2023-07-16T06:16:47;6.75;;;2.20;;
68800;SDS011;55784;50.734;7.086;2023-07-16T06:19:12;7.10;;;2.40;;
68800;SDS011;55784;50.734;7.086;2023-07-16T06:21:38;7.83;;;2.30;;
68800;SDS011;55784;50.734;7.086;2023-07-16T06:24:03;8.43;;;2.40;;
68800;SDS011;55784;50.734;7.086;2023-07-16T06:26:28;6.93;;;2.07;;
68800;SDS011;55784;50.734;7.086;2023-07-16T06:28:54;6.47;;;2.03;;
68800;SDS011;55784;50.734;7.086;2023-07-16T06:31:19;7.35;;;2.10;;
68800;SDS011;55784;50.734;7.086;2023-07-16T06:33:44;9.10;;;2.10;;
68800;SDS011;55784;50.734;7.086;2023-07-16T06:36:11;7.93;;;2.50;;
68800;SDS011;55784;50.734;7.086;2023-07-16T06:38:40;7.10;;;2.20;;
68800;SDS011;55784;50.734;7.086;2023-07-16T06:41:05;7.23;;;2.57;;
68800;SDS011;55784;50.734;7.086;2023-07-16T06:43:31;8.68;;;2.33;;
68800;SDS011;55784;50.734;7.086;2023-07-16T06:45:56;7.27;;;2.50;;
68800;SDS011;55784;50.734;7.086;2023-07-16T06:48:22;6.93;;;2.30;;
68800;SDS011;55784;50.734;7.086;2023-07-16T06:50:47;8.03;;;2.50;;
68800;SDS011;55784;50.734;7.086;2023-07-16T06:53:12;8.00;;;2.60;;
68800;SDS011;55784;50.734;7.086;2023-07-16T06:55:38;7.97;;;2.73;;
68800;SDS011;55784;50.734;7.086;2023-07-16T06:58:03;8.37;;;2.40;;
68800;SDS011;55784;50.734;7.086;2023-07-16T07:00:28;7.53;;;2.50;;
68800;SDS011;55784;50.734;7.086;2023-07-16T07:02:54;7.87;;;2.57;;
68800;SDS011;55784;50.734;7.086;2023-07-16T07:05:19;8.60;;;2.50;;
68800;SDS011;55784;50.734;7.086;2023-07-16T07:07:45;10.50;;;2.63;;
68800;SDS011;55784;50.734;7.086;2023-07-16T07:10:13;7.67;;;2.77;;
68800;SDS011;55784;50.734;7.086;2023-07-16T07:12:38;7.53;;;2.92;;
68800;SDS011;55784;50.734;7.086;2023-07-16T07:15:05;7.97;;;2.73;;
68800;SDS011;55784;50.734;7.086;2023-07-16T07:17:34;8.20;;;2.63;;
68800;SDS011;55784;50.734;7.086;2023-07-16T07:20:02;7.15;;;2.63;;
68800;SDS011;55784;50.734;7.086;2023-07-16T07:22:28;9.27;;;2.70;;
68800;SDS011;55784;50.734;7.086;2023-07-16T07:24:53;7.03;;;2.55;;
68800;SDS011;55784;50.734;7.086;2023-07-16T07:27:19;6.77;;;2.90;;
68800;SDS011;55784;50.734;7.086;2023-07-16T07:29:44;8.57;;;3.00;;
68800;SDS011;55784;50.734;7.086;2023-07-16T07:32:11;8.93;;;3.00;;
68800;SDS011;55784;50.734;7.086;2023-07-16T07:34:38;7.37;;;2.63;;
68800;SDS011;55784;50.734;7.086;2023-07-16T07:37:03;7.18;;;2.80;;
68800;SDS011;55784;50.734;7.086;2023-07-16T07:39:29;8.00;;;2.57;;
68800;SDS011;55784;50.734;7.086;2023-07-16T07:41:54;7.80;;;3.00;;
68800;SDS011;55784;50.734;7.086;2023-07-16T07:44:19;8.40;;;2.70;;
68800;SDS011;55784;50.734;7.086;2023-07-16T07:46:45;11.33;;;3.13;;
68800;SDS011;55784;50.734;7.086;2023-07-16T07:49:10;8.20;;;2.93;;
68800;SDS011;55784;50.734;7.086;2023-07-16T07:51:35;7.80;;;2.80;;
68800;SDS011;55784;50.734;7.086;2023-07-16T07:54:01;7.00;;;2.70;;
68800;SDS011;55784;50.734;7.086;2023-07-16T07:56:26;6.87;;;2.93;;
68800;SDS011;55784;50.734;7.086;2023-07-16T07:58:52;9.30;;;2.80;;
68800;SDS011;55784;50.734;7.086;2023-07-16T08:01:17;8.00;;;3.07;;
68800;SDS011;55784;50.734;7.086;2023-07-16T08:03:42;8.25;;;3.03;;
68800;SDS011;55784;50.734;7.086;2023-07-16T08:06:07;7.50;;;2.83;;
68800;SDS011;55784;50.734;7.086;2023-07-16T08:08:33;8.40;;;3.10;;
68800;SDS011;55784;50.734;7.086;2023-07-16T08:10:58;8.37;;;3.30;;
68800;SDS011;55784;50.734;7.086;2023-07-16T08:13:23;7.60;;;2.90;;
68800;SDS011;55784;50.734;7.086;2023-07-16T08:15:49;8.93;;;3.10;;
68800;SDS011;55784;50.734;7.086;2023-07-16T08:18:14;7.70;;;3.27;;
68800;SDS011;55784;50.734;7.086;2023-07-16T08:20:39;9.73;;;3.40;;
68800;SDS011;55784;50.734;7.086;2023-07-16T08:23:06;8.23;;;3.30;;
68800;SDS011;55784;50.734;7.086;2023-07-16T08:25:31;7.40;;;3.20;;
68800;SDS011;55784;50.734;7.086;2023-07-16T08:27:56;7.20;;;3.13;;
68800;SDS011;55784;50.734;7.086;2023-07-16T08:30:22;9.17;;;3.20;;
68800;SDS011;55784;50.734;7.086;2023-07-16T08:32:47;8.80;;;3.50;;
68800;SDS011;55784;50.734;7.086;2023-07-16T08:35:12;8.10;;;3.03;;
68800;SDS011;55784;50.734;7.086;2023-07-16T08:37:42;6.65;;;2.95;;
68800;SDS011;55784;50.734;7.086;2023-07-16T08:40:10;8.80;;;2.83;;
68800;SDS011;55784;50.734;7.086;2023-07-16T08:42:40;7.97;;;3.40;;
68800;SDS011;55784;50.734;7.086;2023-07-16T08:45:11;12.32;;;3.30;;
68800;SDS011;55784;50.734;7.086;2023-07-16T08:47:36;7.70;;;3.30;;
68800;SDS011;55784;50.734;7.086;2023-07-16T08:53:24;8.05;;;2.80;;
68800;SDS011;55784;50.734;7.086;2023-07-16T08:55:49;9.97;;;2.50;;
68800;SDS011;55784;50.734;7.086;2023-07-16T08:58:15;6.47;;;2.40;;
68800;SDS011;55784;50.734;7.086;2023-07-16T09:00:44;6.90;;;2.20;;
68800;SDS011;55784;50.734;7.086;2023-07-16T09:03:11;7.10;;;2.25;;
68800;SDS011;55784;50.734;7.086;2023-07-16T09:05:38;6.73;;;2.27;;
68800;SDS011;55784;50.734;7.086;2023-07-16T09:08:04;8.55;;;2.20;;
68800;SDS011;55784;50.734;7.086;2023-07-16T09:10:29;6.80;;;2.00;;
68800;SDS011;55784;50.734;7.086;2023-07-16T09:12:58;6.67;;;2.10;;
68800;SDS011;55784;50.734;7.086;2023-07-16T09:15:24;7.13;;;2.05;;
68800;SDS011;55784;50.734;7.086;2023-07-16T09:17:50;6.10;;;2.03;;
68800;SDS011;55784;50.734;7.086;2023-07-16T09:20:18;6.40;;;1.80;;
68800;SDS011;55784;50.734;7.086;2023-07-16T09:22:44;7.33;;;1.73;;
68800;SDS011;55784;50.734;7.086;2023-07-16T09:25:10;6.32;;;1.90;;
68800;SDS011;55784;50.734;7.086;2023-07-16T09:27:36;5.53;;;1.98;;
68800;SDS011;55784;50.734;7.086;2023-07-16T09:30:05;6.57;;;1.67;;
68800;SDS011;55784;50.734;7.086;2023-07-16T09:32:34;7.27;;;1.77;;
68800;SDS011;55784;50.734;7.086;2023-07-16T09:35:05;6.30;;;2.00;;
68800;SDS011;55784;50.734;7.086;2023-07-16T09:37:37;6.10;;;1.77;;
68800;SDS011;55784;50.734;7.086;2023-07-16T09:40:07;5.90;;;1.88;;
68800;SDS011;55784;50.734;7.086;2023-07-16T09:42:41;6.00;;;1.80;;
68800;SDS011;55784;50.734;7.086;2023-07-16T09:45:08;6.43;;;1.70;;
68800;SDS011;55784;50.734;7.086;2023-07-16T09:47:41;6.22;;;1.88;;
68800;SDS011;55784;50.734;7.086;2023-07-16T09:50:07;5.80;;;1.50;;
68800;SDS011;55784;50.734;7.086;2023-07-16T09:52:33;6.33;;;1.80;;
68800;SDS011;55784;50.734;7.086;2023-07-16T09:55:00;6.50;;;1.90;;
68800;SDS011;55784;50.734;7.086;2023-07-16T09:57:28;7.73;;;1.87;;
68800;SDS011;55784;50.734;7.086;2023-07-16T09:59:59;6.95;;;1.70;;
68800;SDS011;55784;50.734;7.086;2023-07-16T10:02:30;13.25;;;7.45;;
68800;SDS011;55784;50.734;7.086;2023-07-16T10:05:17;16.65;;;8.40;;
68800;SDS011;55784;50.734;7.086;2023-07-16T10:07:59;8.68;;;3.00;;
68800;SDS011;55784;50.734;7.086;2023-07-16T10:13:30;7.57;;;2.17;;
68800;SDS011;55784;50.734;7.086;2023-07-16T10:16:01;7.75;;;2.20;;
68800;SDS011;55784;50.734;7.086;2023-07-16T10:18:30;6.15;;;2.17;;
68800;SDS011;55784;50.734;7.086;2023-07-16T10:24:16;6.30;;;2.07;;
68800;SDS011;55784;50.734;7.086;2023-07-16T10:30:13;6.25;;;1.95;;
68800;SDS011;55784;50.734;7.086;2023-07-16T13:24:38;6.85;;;2.10;;
68800;SDS011;55784;50.734;7.086;2023-07-16T13:27:28;5.93;;;2.13;;
68800;SDS011;55784;50.734;7.086;2023-07-16T13:33:03;6.13;;;1.90;;
68800;SDS011;55784;50.734;7.086;2023-07-16T13:36:16;7.13;;;2.03;;
68800;SDS011;55784;50.734;7.086;2023-07-16T13:39:30;6.80;;;2.30;;
68800;SDS011;55784;50.734;7.086;2023-07-16T13:48:30;6.03;;;2.15;;
68800;SDS011;55784;50.734;7.086;2023-07-16T13:51:37;7.73;;;2.20;;
68800;SDS011;55784;50.734;7.086;2023-07-16T13:57:56;6.25;;;2.20;;
68800;SDS011;55784;50.734;7.086;2023-07-16T14:01:13;7.72;;;2.50;;
68800;SDS011;55784;50.734;7.086;2023-07-16T14:03:57;7.38;;;2.60;;
68800;SDS011;55784;50.734;7.086;2023-07-16T14:06:54;6.93;;;2.57;;
68800;SDS011;55784;50.734;7.086;2023-07-16T14:12:55;7.10;;;2.50;;
68800;SDS011;55784;50.734;7.086;2023-07-16T14:15:57;5.60;;;2.30;;
68800;SDS011;55784;50.734;7.086;2023-07-16T14:18:52;8.13;;;2.42;;
68800;SDS011;55784;50.734;7.086;2023-07-16T14:21:44;6.47;;;2.40;;
68800;SDS011;55784;50.734;7.086;2023-07-16T14:24:30;7.15;;;2.10;;
68800;SDS011;55784;50.734;7.086;2023-07-16T14:27:38;5.78;;;1.98;;
68800;SDS011;55784;50.734;7.086;2023-07-16T14:30:37;6.75;;;2.17;;
68800;SDS011;55784;50.734;7.086;2023-07-16T14:33:28;6.47;;;2.35;;
68800;SDS011;55784;50.734;7.086;2023-07-16T14:36:16;5.87;;;2.13;;
68800;SDS011;55784;50.734;7.086;2023-07-16T14:39:11;5.70;;;2.22;;
68800;SDS011;55784;50.734;7.086;2023-07-16T14:42:02;6.00;;;2.08;;
68800;SDS011;55784;50.734;7.086;2023-07-16T14:51:32;6.20;;;2.20;;
68800;SDS011;55784;50.734;7.086;2023-07-16T14:54:42;5.60;;;2.03;;
68800;SDS011;55784;50.734;7.086;2023-07-16T14:57:49;6.35;;;2.20;;
68800;SDS011;55784;50.734;7.086;2023-07-16T15:03:59;6.22;;;2.05;;
68800;SDS011;55784;50.734;7.086;2023-07-16T15:13:44;7.15;;;2.08;;
68800;SDS011;55784;50.734;7.086;2023-07-16T15:26:53;6.20;;;2.03;;
68800;SDS011;55784;50.734;7.086;2023-07-16T15:57:20;8.77;;;2.20;;
68800;SDS011;55784;50.734;7.086;2023-07-16T16:03:55;6.45;;;2.20;;
68800;SDS011;55784;50.734;7.086;2023-07-16T16:06:21;6.43;;;2.00;;
68800;SDS011;55784;50.734;7.086;2023-07-16T16:08:46;6.00;;;2.10;;
68800;SDS011;55784;50.734;7.086;2023-07-16T16:11:11;6.43;;;2.30;;
68800;SDS011;55784;50.734;7.086;2023-07-16T16:13:37;6.83;;;2.30;;
68800;SDS011;55784;50.734;7.086;2023-07-16T16:16:02;7.00;;;2.83;;
68800;SDS011;55784;50.734;7.086;2023-07-16T16:18:28;7.67;;;2.60;;
68800;SDS011;55784;50.734;7.086;2023-07-16T16:20:53;7.63;;;2.60;;
68800;SDS011;55784;50.734;7.086;2023-07-16T16:23:18;7.53;;;3.20;;
68800;SDS011;55784;50.734;7.086;2023-07-16T16:25:44;6.88;;;2.40;;
68800;SDS011;55784;50.734;7.086;2023-07-16T16:28:10;7.00;;;2.30;;
68800;SDS011;55784;50.734;7.086;2023-07-16T16:30:36;6.20;;;2.20;;
68800;SDS011;55784;50.734;7.086;2023-07-16T16:33:04;6.65;;;2.22;;
68800;SDS011;55784;50.734;7.086;2023-07-16T16:35:35;8.70;;;2.40;;
68800;SDS011;55784;50.734;7.086;2023-07-16T16:38:02;8.88;;;2.53;;
68800;SDS011;55784;50.734;7.086;2023-07-16T16:40:28;6.80;;;2.40;;
68800;SDS011;55784;50.734;7.086;2023-07-16T16:42:54;8.57;;;2.50;;
68800;SDS011;55784;50.734;7.086;2023-07-16T16:45:19;6.72;;;2.45;;
68800;SDS011;55784;50.734;7.086;2023-07-16T16:47:44;7.87;;;2.43;;
68800;SDS011;55784;50.734;7.086;2023-07-16T16:50:10;6.03;;;2.20;;
68800;SDS011;55784;50.734;7.086;2023-07-16T16:52:36;7.57;;;2.30;;
68800;SDS011;55784;50.734;7.086;2023-07-16T16:55:02;6.03;;;2.13;;
68800;SDS011;55784;50.734;7.086;2023-07-16T16:57:29;6.13;;;2.30;;
68800;SDS011;55784;50.734;7.086;2023-07-16T16:59:54;6.30;;;2.17;;
68800;SDS011;55784;50.734;7.086;2023-07-16T17:02:20;6.90;;;2.23;;
68800;SDS011;55784;50.734;7.086;2023-07-16T17:04:46;7.27;;;2.27;;
68800;SDS011;55784;50.734;7.086;2023-07-16T17:07:11;8.47;;;2.80;;
68800;SDS011;55784;50.734;7.086;2023-07-16T17:09:37;8.37;;;2.43;;
68800;SDS011;55784;50.734;7.086;2023-07-16T17:12:03;7.03;;;2.13;;
68800;SDS011;55784;50.734;7.086;2023-07-16T17:14:28;6.80;;;2.10;;
68800;SDS011;55784;50.734;7.086;2023-07-16T17:16:54;8.47;;;2.30;;
68800;SDS011;55784;50.734;7.086;2023-07-16T17:19:20;7.00;;;2.30;;
68800;SDS011;55784;50.734;7.086;2023-07-16T17:21:47;8.25;;;2.38;;
68800;SDS011;55784;50.734;7.086;2023-07-16T17:24:12;6.63;;;2.50;;
68800;SDS011;55784;50.734;7.086;2023-07-16T17:26:38;7.30;;;2.27;;
68800;SDS011;55784;50.734;7.086;2023-07-16T17:29:05;7.55;;;2.20;;
68800;SDS011;55784;50.734;7.086;2023-07-16T17:31:30;8.00;;;2.73;;
68800;SDS011;55784;50.734;7.086;2023-07-16T17:33:57;6.32;;;2.20;;
68800;SDS011;55784;50.734;7.086;2023-07-16T17:36:22;7.13;;;2.40;;
68800;SDS011;55784;50.734;7.086;2023-07-16T17:38:48;7.10;;;2.50;;
68800;SDS011;55784;50.734;7.086;2023-07-16T17:41:13;6.30;;;2.15;;
68800;SDS011;55784;50.734;7.086;2023-07-16T17:43:39;6.33;;;2.17;;
68800;SDS011;55784;50.734;7.086;2023-07-16T17:46:04;6.60;;;2.03;;
68800;SDS011;55784;50.734;7.086;2023-07-16T17:48:30;7.40;;;2.33;;
68800;SDS011;55784;50.734;7.086;2023-07-16T17:50:55;6.93;;;2.27;;
68800;SDS011;55784;50.734;7.086;2023-07-16T17:53:20;6.53;;;2.40;;
68800;SDS011;55784;50.734;7.086;2023-07-16T17:55:46;8.97;;;2.50;;
68800;SDS011;55784;50.734;7.086;2023-07-16T17:58:11;6.85;;;2.30;;
68800;SDS011;55784;50.734;7.086;2023-07-16T18:00:37;6.70;;;2.27;;
68800;SDS011;55784;50.734;7.086;2023-07-16T18:03:03;6.30;;;2.25;;
68800;SDS011;55784;50.734;7.086;2023-07-16T18:05:28;7.10;;;2.30;;
68800;SDS011;55784;50.734;7.086;2023-07-16T18:07:54;6.65;;;2.50;;
68800;SDS011;55784;50.734;7.086;2023-07-16T18:10:20;6.90;;;2.30;;
68800;SDS011;55784;50.734;7.086;2023-07-16T18:12:47;6.55;;;2.20;;
68800;SDS011;55784;50.734;7.086;2023-07-16T18:15:12;6.90;;;2.37;;
68800;SDS011;55784;50.734;7.086;2023-07-16T18:17:37;6.77;;;2.37;;
68800;SDS011;55784;50.734;7.086;2023-07-16T18:20:03;6.50;;;2.20;;
68800;SDS011;55784;50.734;7.086;2023-07-16T18:22:29;7.70;;;2.37;;
68800;SDS011;55784;50.734;7.086;2023-07-16T18:24:54;6.37;;;2.40;;
68800;SDS011;55784;50.734;7.086;2023-07-16T18:27:19;9.98;;;4.32;;
68800;SDS011;55784;50.734;7.086;2023-07-16T18:29:45;7.57;;;2.87;;
68800;SDS011;55784;50.734;7.086;2023-07-16T18:32:10;6.60;;;2.10;;
68800;SDS011;55784;50.734;7.086;2023-07-16T18:34:36;11.00;;;2.78;;
68800;SDS011;55784;50.734;7.086;2023-07-16T18:37:02;7.27;;;2.50;;
68800;SDS011;55784;50.734;7.086;2023-07-16T18:39:27;7.23;;;2.50;;
68800;SDS011;55784;50.734;7.086;2023-07-16T18:41:53;6.88;;;2.40;;
68800;SDS011;55784;50.734;7.086;2023-07-16T18:44:18;8.30;;;2.40;;
68800;SDS011;55784;50.734;7.086;2023-07-16T18:46:43;7.40;;;2.20;;
68800;SDS011;55784;50.734;7.086;2023-07-16T18:49:09;7.17;;;2.20;;
68800;SDS011;55784;50.734;7.086;2023-07-16T18:51:34;7.47;;;2.50;;
68800;SDS011;55784;50.734;7.086;2023-07-16T18:54:00;8.43;;;2.40;;
68800;SDS011;55784;50.734;7.086;2023-07-16T18:56:25;7.17;;;2.50;;
68800;SDS011;55784;50.734;7.086;2023-07-16T18:58:50;8.40;;;2.27;;
68800;SDS011;55784;50.734;7.086;2023-07-16T19:01:16;8.50;;;2.80;;
68800;SDS011;55784;50.734;7.086;2023-07-16T19:03:41;5.97;;;2.17;;
68800;SDS011;55784;50.734;7.086;2023-07-16T19:06:06;7.50;;;2.57;;
68800;SDS011;55784;50.734;7.086;2023-07-16T19:08:32;7.63;;;2.60;;
68800;SDS011;55784;50.734;7.086;2023-07-16T19:10:57;6.80;;;2.30;;
68800;SDS011;55784;50.734;7.086;2023-07-16T19:13:22;6.20;;;2.20;;
68800;SDS011;55784;50.734;7.086;2023-07-16T19:15:49;8.18;;;2.63;;
68800;SDS011;55784;50.734;7.086;2023-07-16T19:18:16;7.63;;;2.20;;
68800;SDS011;55784;50.734;7.086;2023-07-16T19:20:42;7.78;;;2.75;;